Ridgetown, Canada
Current Conditions -  °F | °C
As of 3:00 AM on Sunday 26 Oct 2014 (Local Time) from CYCK Reporting Station
Clear Clear  
Wind Chill:   Ceiling: Unl
Heat Index:   Visibility: 9mi
Dew Point:   Wind: 12mph
Humidity: 66%   Direction: 300°WNW
Pressure: 29.81"   Gusts: NA
Location:  42.43°N, 81.88°W
Report Text: CYCK 260700Z AUTO 30010KT 9SM CLR 08/02 A2981 RMK SLP094
Loading
Personal Weather Stations






























Interactive Weather Map
Tropical Storm Tracking
New forecast layout! Learn more

10-Day Weather Forecast

Advertisements
Track Severe Weather on mobile